Time;durP1;ratioP1;P1;durP2;ratioP2;P2;SDS_P1;SDS_P2;PMS_P1;PMS_P2;Temp;Humidity;BMP_temperature;BMP_pressure;BME280_temperature;BME280_humidity;BME280_pressure;Samples;Min_cycle;Max_cycle;Signal;HPM_P1;HPM_P2
2024/01/22 00:01:19;;;;;;;4.85;2.65;;;;;;;8.06;74.42;99193.28;4973880;28;20054;-77
2024/01/22 00:03:46;;;;;;;7.30;3.20;;;;;;;7.97;73.37;99191.16;4973221;28;20166;-79
2024/01/22 00:06:12;;;;;;;6.38;2.30;;;;;;;8.03;74.51;99147.09;4974197;28;20045;-78
2024/01/22 00:08:39;;;;;;;7.90;2.78;;;;;;;8.10;74.67;99142.38;4974604;28;20729;-76
2024/01/22 00:11:05;;;;;;;7.35;2.83;;;;;;;8.11;74.70;99141.44;4974634;28;20051;-77
2024/01/22 00:13:32;;;;;;;6.93;3.15;;;;;;;8.14;74.95;99150.88;4974295;28;20106;-77
2024/01/22 00:15:59;;;;;;;8.63;3.08;;;;;;;8.16;74.56;99107.09;4974501;28;20055;-77
2024/01/22 00:18:25;;;;;;;5.00;2.83;;;;;;;8.16;74.59;99120.19;4956967;28;20046;-77
2024/01/22 00:20:52;;;;;;;5.43;2.28;;;;;;;8.16;74.60;99134.16;4974215;28;20062;-79
2024/01/22 00:23:19;;;;;;;7.45;3.17;;;;;;;8.16;74.56;99113.19;4974163;28;20102;-77
2024/01/22 00:25:45;;;;;;;5.85;2.70;;;;;;;8.19;74.69;99117.41;4974211;28;20096;-76
2024/01/22 00:28:12;;;;;;;8.10;3.03;;;;;;;8.22;74.64;99096.25;4973920;28;20047;-77
2024/01/22 00:33:09;;;;;;;4.22;2.47;;;;;;;8.28;74.59;99108.16;5104323;23;20054;-76
2024/01/22 00:35:36;;;;;;;5.53;2.78;;;;;;;8.29;74.69;99081.84;4974840;28;20058;-74
2024/01/22 00:38:03;;;;;;;6.70;2.67;;;;;;;8.35;74.81;99091.16;4975006;28;20053;-75
2024/01/22 00:40:29;;;;;;;5.75;2.50;;;;;;;8.37;74.78;99068.28;4974711;28;20055;-76
2024/01/22 00:42:56;;;;;;;5.57;2.80;;;;;;;8.44;74.83;99060.88;4974876;28;20063;-75
2024/01/22 00:45:22;;;;;;;6.55;2.60;;;;;;;8.45;74.46;99062.59;4974253;28;20102;-73
2024/01/22 00:47:49;;;;;;;4.65;2.30;;;;;;;8.47;74.66;99039.72;4974660;28;20047;-75
2024/01/22 00:50:16;;;;;;;7.03;2.47;;;;;;;8.47;74.45;99069.44;4974640;28;20073;-75
2024/01/22 00:52:42;;;;;;;6.63;3.03;;;;;;;8.45;74.43;99060.81;4974343;28;20042;-75
2024/01/22 00:55:09;;;;;;;3.38;2.47;;;;;;;8.50;74.64;99042.19;4956911;28;20050;-76
2024/01/22 00:57:37;;;;;;;4.60;2.55;;;;;;;8.55;74.16;99027.03;4973961;28;20050;-75
2024/01/22 01:00:05;;;;;;;5.85;2.20;;;;;;;8.58;74.65;99020.75;4973145;28;20065;-75
2024/01/22 01:02:32;;;;;;;7.00;2.50;;;;;;;8.62;74.38;99003.91;4973956;28;20095;-75
2024/01/22 01:04:59;;;;;;;5.15;2.38;;;;;;;8.63;74.61;99002.13;4973729;28;20484;-75
2024/01/22 01:07:26;;;;;;;5.35;2.33;;;;;;;8.65;74.16;99024.72;4974053;28;20063;-76
2024/01/22 01:12:34;;;;;;;2.80;1.63;;;;;;;8.76;74.31;98981.22;5105176;23;20055;-77
2024/01/22 01:15:01;;;;;;;7.45;2.55;;;;;;;8.77;74.51;98956.66;4973277;28;20599;-76
2024/01/22 01:17:28;;;;;;;5.95;2.55;;;;;;;8.80;74.38;98972.22;4974307;28;20055;-77
2024/01/22 01:19:54;;;;;;;3.25;2.10;;;;;;;8.81;74.65;98958.13;4973930;28;20054;-75
2024/01/22 01:22:20;;;;;;;4.22;2.20;;;;;;;8.79;73.92;98958.22;4973594;28;20051;-76
2024/01/22 01:24:47;;;;;;;6.22;2.45;;;;;;;8.86;74.36;98940.34;4973358;28;20042;-76
2024/01/22 01:27:16;;;;;;;9.85;2.72;;;;;;;8.81;72.49;98943.25;4972313;28;20133;-77
2024/01/22 01:29:43;;;;;;;5.20;2.55;;;;;;;8.87;74.22;98923.66;4973186;28;20103;-77
2024/01/22 01:32:09;;;;;;;3.63;1.98;;;;;;;8.92;74.28;98947.81;4972778;28;20090;-77
2024/01/22 01:34:36;;;;;;;7.90;2.53;;;;;;;8.95;74.22;98933.66;4973119;28;20042;-77
2024/01/22 01:37:04;;;;;;;7.80;2.45;;;;;;;8.97;74.13;98919.50;4955422;28;20129;-77
2024/01/22 01:39:30;;;;;;;4.60;2.03;;;;;;;9.01;74.23;98919.31;4973025;28;20050;-75
2024/01/22 01:41:57;;;;;;;5.28;2.47;;;;;;;8.99;73.50;98922.88;4972902;28;20105;-77
2024/01/22 01:44:39;;;;;;;3.28;2.08;;;;;;;8.94;71.41;98927.56;4955801;28;20090;-77
2024/01/22 01:47:05;;;;;;;6.28;2.17;;;;;;;8.96;73.47;98902.06;4972386;28;20082;-78
2024/01/22 01:49:32;;;;;;;7.10;2.40;;;;;;;9.01;73.75;98914.88;4972562;28;20086;-77
2024/01/22 01:52:00;;;;;;;3.58;2.05;;;;;;;9.04;73.66;98903.38;4972500;28;20051;-77
2024/01/22 01:54:28;;;;;;;6.05;2.28;;;;;;;9.03;73.97;98897.25;4955522;28;20069;-77
2024/01/22 01:56:55;;;;;;;4.82;2.33;;;;;;;9.05;73.51;98900.63;4972519;28;20137;-78
2024/01/22 01:59:23;;;;;;;4.90;2.28;;;;;;;9.08;73.91;98910.94;4972340;28;20133;-76
2024/01/22 02:01:50;;;;;;;3.88;2.22;;;;;;;9.12;74.05;98911.56;4972641;28;20143;-78
2024/01/22 02:04:17;;;;;;;3.97;2.35;;;;;;;9.15;73.90;98908.75;4972221;28;20141;-77
2024/01/22 02:06:43;;;;;;;4.82;2.30;;;;;;;9.16;73.63;98899.91;4972298;28;20061;-77
2024/01/22 02:09:10;;;;;;;3.80;2.00;;;;;;;9.20;73.79;98930.28;4972332;28;20098;-77
2024/01/22 02:11:37;;;;;;;4.40;1.85;;;;;;;9.19;73.55;98912.84;4955142;28;20062;-77
2024/01/22 02:14:03;;;;;;;4.38;1.90;;;;;;;9.22;74.23;98935.44;4972111;28;20078;-75
2024/01/22 02:16:30;;;;;;;4.75;2.40;;;;;;;9.24;74.09;98925.69;4972357;28;20447;-78
2024/01/22 02:18:56;;;;;;;7.32;2.30;;;;;;;9.23;74.04;98930.09;4972325;28;20050;-77
2024/01/22 02:21:23;;;;;;;3.70;1.60;;;;;;;9.28;74.02;98913.19;4972120;28;20062;-77
2024/01/22 02:23:50;;;;;;;3.60;1.80;;;;;;;9.33;74.14;98932.13;4971839;28;20061;-77
2024/01/22 02:26:16;;;;;;;6.18;2.05;;;;;;;9.37;73.80;98936.22;4955097;28;20075;-77
2024/01/22 02:28:44;;;;;;;7.40;2.00;;;;;;;9.37;73.68;98925.72;5033534;23;20058;-77
2024/01/22 02:31:11;;;;;;;4.35;1.88;;;;;;;9.41;73.98;98919.34;4955361;28;20054;-77
2024/01/22 02:33:38;;;;;;;4.15;1.70;;;;;;;9.48;73.57;98922.41;4972147;28;20440;-77
2024/01/22 02:36:05;;;;;;;8.60;2.00;;;;;;;9.51;73.40;98927.47;4972238;28;20082;-76
2024/01/22 02:38:32;;;;;;;3.90;1.83;;;;;;;9.56;73.62;98904.34;4972353;28;20089;-77
2024/01/22 02:40:58;;;;;;;3.70;1.90;;;;;;;9.61;73.64;98906.69;4971892;28;20050;-77
2024/01/22 02:43:25;;;;;;;4.13;2.20;;;;;;;9.63;73.25;98903.00;4971854;28;20082;-78
2024/01/22 02:45:51;;;;;;;4.47;1.98;;;;;;;9.65;72.98;98895.03;4984829;23;20115;-76
2024/01/22 02:48:18;;;;;;;3.08;1.70;;;;;;;9.67;72.30;98905.41;4955624;28;20050;-76
2024/01/22 02:50:44;;;;;;;4.10;2.17;;;;;;;9.73;72.89;98884.84;4971843;28;20635;-76
2024/01/22 02:53:12;;;;;;;4.13;1.73;;;;;;;9.74;72.02;98896.16;4972492;28;20051;-76
2024/01/22 02:55:38;;;;;;;5.43;2.15;;;;;;;9.75;72.56;98859.28;4972556;28;20126;-77
2024/01/22 02:58:05;;;;;;;3.20;1.90;;;;;;;9.82;72.99;98864.09;4971968;28;20388;-76
2024/01/22 03:00:32;;;;;;;3.33;1.70;;;;;;;9.84;72.65;98846.44;4972273;28;20055;-76
2024/01/22 03:02:58;;;;;;;2.72;1.58;;;;;;;9.90;72.94;98846.03;4972114;28;20691;-76
2024/01/22 03:05:25;;;;;;;4.07;1.77;;;;;;;9.89;72.81;98839.94;4954798;28;20062;-77
2024/01/22 03:07:51;;;;;;;3.38;1.45;;;;;;;9.92;72.73;98857.28;4971859;28;20054;-76
2024/01/22 03:10:18;;;;;;;4.65;1.67;;;;;;;9.95;72.76;98851.81;4972320;28;20959;-76
2024/01/22 03:15:19;;;;;;;4.13;1.65;;;;;;;10.00;72.63;98862.84;5090799;23;20189;-77
2024/01/22 03:17:46;;;;;;;4.30;1.80;;;;;;;10.00;72.43;98859.38;4956036;28;20560;-77
2024/01/22 03:20:13;;;;;;;2.05;1.52;;;;;;;10.08;72.47;98864.09;4973734;28;20051;-77
2024/01/22 03:22:40;;;;;;;4.38;1.70;;;;;;;10.08;71.72;98866.72;4973300;28;20122;-76
2024/01/22 03:25:07;;;;;;;4.85;1.48;;;;;;;10.13;72.20;98835.72;4977158;28;20196;-76
2024/01/22 03:27:34;;;;;;;9.70;1.40;;;;;;;10.13;72.02;98839.16;4959732;28;20488;-76
2024/01/22 03:30:00;;;;;;;4.18;1.70;;;;;;;10.14;71.77;98809.28;4976542;28;20058;-77
2024/01/22 03:32:27;;;;;;;4.65;1.70;;;;;;;10.19;71.71;98811.59;4976153;28;20050;-77
2024/01/22 03:34:54;;;;;;;2.45;1.20;;;;;;;10.26;72.23;98814.63;4976807;28;20105;-77
2024/01/22 03:37:21;;;;;;;3.75;1.67;;;;;;;10.30;72.18;98798.53;4976955;28;20050;-77
2024/01/22 03:39:47;;;;;;;3.00;1.67;;;;;;;10.32;71.68;98784.44;4959099;28;20097;-74
2024/01/22 03:42:14;;;;;;;3.70;1.58;;;;;;;10.36;71.84;98788.53;4976348;28;20046;-77
2024/01/22 03:44:41;;;;;;;6.50;1.52;;;;;;;10.32;71.15;98789.69;4976457;28;20467;-76
2024/01/22 03:47:08;;;;;;;5.07;1.75;;;;;;;10.26;71.68;98765.50;4976639;28;20055;-76
2024/01/22 03:49:34;;;;;;;6.22;1.67;;;;;;;10.25;71.88;98742.75;4975206;28;20097;-77
2024/01/22 03:52:01;;;;;;;3.25;1.80;;;;;;;10.15;72.31;98715.47;4975445;28;20047;-74
2024/01/22 03:54:28;;;;;;;2.45;1.33;;;;;;;10.04;72.79;98724.97;4975577;28;20496;-76
2024/01/22 03:56:54;;;;;;;2.92;1.40;;;;;;;9.95;73.46;98717.75;4975561;28;20110;-76
2024/01/22 03:59:21;;;;;;;4.57;1.65;;;;;;;9.87;73.77;98701.69;4975633;28;20515;-76
2024/01/22 04:01:48;;;;;;;5.78;1.95;;;;;;;9.75;74.45;98720.00;4975679;28;20053;-76
2024/01/22 04:04:14;;;;;;;11.70;1.83;;;;;;;9.64;75.15;98710.22;4975099;28;20049;-77
2024/01/22 04:06:41;;;;;;;4.57;1.60;;;;;;;9.59;75.72;98674.72;4975297;28;20065;-76
2024/01/22 04:12:32;;;;;;;;;;;;;;;9.45;77.02;98694.06;4978683;28;20051;-75
2024/01/22 04:14:58;;;;;;;2.25;1.38;;;;;;;9.43;77.39;98702.06;4973498;28;19926;-75
2024/01/22 04:17:25;;;;;;;2.53;1.60;;;;;;;9.40;78.01;98694.41;4974746;28;20046;-76
2024/01/22 04:19:52;;;;;;;4.35;1.50;;;;;;;9.38;78.33;98675.25;4974989;28;20047;-75
2024/01/22 04:22:18;;;;;;;2.47;1.45;;;;;;;9.36;78.74;98683.28;4974554;28;20051;-75
2024/01/22 04:24:45;;;;;;;3.53;1.70;;;;;;;9.34;78.87;98672.03;4974958;28;20054;-76
2024/01/22 04:27:11;;;;;;;3.15;1.63;;;;;;;9.34;79.35;98681.69;4974336;28;20077;-77
2024/01/22 04:29:38;;;;;;;3.97;1.58;;;;;;;9.37;79.68;98665.72;4974656;28;20097;-77
2024/01/22 04:32:06;;;;;;;4.55;1.77;;;;;;;9.38;79.92;98659.50;4973983;28;20054;-77
2024/01/22 04:34:32;;;;;;;3.80;1.80;;;;;;;9.38;80.19;98670.88;4973326;28;20055;-75
2024/01/22 04:36:59;;;;;;;1.65;1.30;;;;;;;9.39;80.50;98661.22;4956916;28;20055;-76
2024/01/22 04:39:25;;;;;;;4.05;1.73;;;;;;;9.41;80.55;98651.41;4974058;28;20495;-76
2024/01/22 04:41:53;;;;;;;2.35;1.55;;;;;;;9.43;80.93;98657.41;4973984;28;20061;-76
2024/01/22 04:44:20;;;;;;;4.97;1.55;;;;;;;9.40;81.25;98665.50;4973478;28;20062;-77
2024/01/22 04:46:48;;;;;;;4.13;1.95;;;;;;;9.44;81.35;98659.09;4973605;28;20054;-76
2024/01/22 04:49:15;;;;;;;1.98;1.33;;;;;;;9.48;81.25;98631.66;4973817;28;20051;-77
2024/01/22 04:51:45;;;;;;;3.53;1.98;;;;;;;9.49;81.44;98653.50;4973579;28;20543;-76
2024/01/22 04:54:12;;;;;;;2.45;1.33;;;;;;;9.45;81.59;98655.50;4956382;28;20388;-76
2024/01/22 04:56:44;;;;;;;3.28;1.50;;;;;;;9.47;81.72;98653.63;4973865;28;20050;-76
2024/01/22 04:59:11;;;;;;;4.17;1.97;;;;;;;9.45;81.95;98645.00;4956415;28;20046;-77
2024/01/22 05:01:37;;;;;;;2.75;1.70;;;;;;;9.48;82.12;98621.16;4973505;28;20290;-76
2024/01/22 05:04:04;;;;;;;8.25;2.25;;;;;;;9.49;82.48;98627.22;4955981;28;20065;-76
2024/01/22 05:06:32;;;;;;;5.70;1.63;;;;;;;9.49;82.50;98603.59;4973724;28;20055;-76
2024/01/22 05:08:58;;;;;;;3.15;1.90;;;;;;;9.50;82.44;98627.13;4965992;28;20381;-76
2024/01/22 05:11:25;;;;;;;2.50;1.90;;;;;;;9.51;82.70;98623.56;4973471;28;20077;-77
2024/01/22 05:13:53;;;;;;;4.28;1.83;;;;;;;9.51;83.03;98609.59;4972862;28;20550;-76
2024/01/22 05:16:21;;;;;;;3.78;2.15;;;;;;;9.49;83.13;98604.44;4973314;28;20047;-77
2024/01/22 05:18:49;;;;;;;2.67;1.83;;;;;;;9.54;83.03;98605.91;4972698;28;20078;-76
2024/01/22 05:21:16;;;;;;;3.25;1.95;;;;;;;9.55;83.33;98602.31;4973224;28;20090;-77
2024/01/22 05:23:43;;;;;;;3.42;1.92;;;;;;;9.56;83.60;98589.06;4973146;28;20055;-76
2024/01/22 05:26:09;;;;;;;3.08;2.10;;;;;;;9.58;83.31;98586.34;4973303;28;20113;-77
2024/01/22 05:28:36;;;;;;;2.22;2.00;;;;;;;9.55;83.93;98583.94;4972688;28;20070;-76
2024/01/22 05:31:04;;;;;;;3.63;1.85;;;;;;;9.59;83.81;98585.38;4973017;28;20054;-76
2024/01/22 05:33:30;;;;;;;3.78;1.77;;;;;;;9.58;83.95;98581.09;4972553;28;20507;-76
2024/01/22 05:35:57;;;;;;;4.55;2.22;;;;;;;9.61;83.94;98575.63;4973057;28;20051;-76
2024/01/22 05:38:24;;;;;;;2.40;1.98;;;;;;;9.61;84.22;98578.25;4972822;28;20134;-76
2024/01/22 05:40:51;;;;;;;2.55;1.85;;;;;;;9.63;84.15;98571.06;4972866;28;20055;-76
2024/01/22 05:43:18;;;;;;;3.30;2.30;;;;;;;9.62;84.41;98556.28;4972623;28;20058;-77
2024/01/22 05:45:44;;;;;;;6.25;2.60;;;;;;;9.64;84.51;98575.38;4972413;28;20121;-77
2024/01/22 05:48:11;;;;;;;5.00;2.35;;;;;;;9.65;84.66;98572.66;4955565;28;20057;-76
2024/01/22 05:50:38;;;;;;;3.78;2.30;;;;;;;9.67;84.69;98585.69;4972670;28;20073;-77
2024/01/22 05:53:05;;;;;;;4.90;2.33;;;;;;;9.68;84.74;98568.13;4972260;28;20075;-76
2024/01/22 05:55:32;;;;;;;3.65;2.25;;;;;;;9.71;84.69;98573.16;4972302;28;20409;-76
2024/01/22 05:57:59;;;;;;;4.68;2.03;;;;;;;9.70;84.97;98568.84;4973200;28;20404;-76
2024/01/22 06:00:25;;;;;;;5.47;2.40;;;;;;;9.72;84.95;98530.19;4972091;28;20086;-75
2024/01/22 06:02:52;;;;;;;2.90;2.28;;;;;;;9.72;85.20;98559.91;4972448;28;20457;-75
2024/01/22 06:05:19;;;;;;;2.88;2.40;;;;;;;9.75;85.29;98546.53;4972306;28;20055;-76
2024/01/22 06:07:46;;;;;;;4.70;2.53;;;;;;;9.78;85.34;98541.06;4972372;28;20058;-75
2024/01/22 06:10:13;;;;;;;4.22;2.80;;;;;;;9.80;85.67;98561.13;4954626;28;20058;-77
2024/01/22 06:12:42;;;;;;;3.55;2.58;;;;;;;9.83;85.69;98539.91;4971882;28;20047;-77
2024/01/22 06:15:09;;;;;;;4.20;2.80;;;;;;;9.87;85.50;98562.38;4972175;28;20098;-77
2024/01/22 06:17:35;;;;;;;3.10;2.90;;;;;;;9.90;85.51;98514.81;4972373;28;20046;-77
2024/01/22 06:20:04;;;;;;;3.25;2.90;;;;;;;9.93;85.69;98579.47;4972443;28;20047;-77
2024/01/22 06:22:32;;;;;;;4.50;3.25;;;;;;;9.96;85.57;98550.31;4972412;28;20082;-74
2024/01/22 06:25:00;;;;;;;4.32;2.92;;;;;;;9.98;85.70;98548.44;4972793;28;20125;-75
2024/01/22 06:27:26;;;;;;;4.25;3.33;;;;;;;10.00;85.93;98576.28;4972492;28;20067;-75
2024/01/22 06:29:56;;;;;;;4.50;3.50;;;;;;;10.01;86.08;98563.97;4972565;28;20058;-74
2024/01/22 06:32:24;;;;;;;3.92;3.28;;;;;;;10.08;86.18;98552.06;5135553;23;20051;-80
2024/01/22 06:34:54;;;;;;;4.47;3.55;;;;;;;10.14;86.29;98548.13;4972530;28;20047;-79
2024/01/22 06:37:23;;;;;;;6.35;4.22;;;;;;;10.15;86.24;98537.50;4972570;28;20479;-79
2024/01/22 06:39:50;;;;;;;5.22;3.40;;;;;;;10.16;86.70;98548.84;4972428;28;20054;-80
2024/01/22 06:42:17;;;;;;;5.10;3.90;;;;;;;10.25;86.89;98549.94;4972354;28;20119;-78
2024/01/22 06:44:57;;;;;;;4.90;4.45;;;;;;;10.33;86.62;98541.47;4972694;28;20072;-79
2024/01/22 06:47:24;;;;;;;4.13;3.40;;;;;;;10.38;86.59;98563.00;4972980;28;20050;-78
2024/01/22 06:49:50;;;;;;;4.95;3.58;;;;;;;10.42;86.69;98559.19;4972856;28;20055;-82
2024/01/22 06:52:17;;;;;;;5.88;3.58;;;;;;;10.51;86.56;98541.91;4972278;28;20043;-79
2024/01/22 06:54:44;;;;;;;4.00;2.90;;;;;;;10.55;86.83;98570.47;4972612;28;20051;-80
2024/01/22 06:57:10;;;;;;;4.97;3.17;;;;;;;10.63;86.73;98562.03;4971992;28;20085;-79
2024/01/22 06:59:37;;;;;;;3.85;2.95;;;;;;;10.70;86.70;98578.19;4972387;28;20066;-78
2024/01/22 07:02:04;;;;;;;2.70;2.50;;;;;;;10.78;86.48;98575.81;4955148;28;20046;-80
2024/01/22 07:04:30;;;;;;;3.78;2.42;;;;;;;10.86;86.09;98561.19;4972346;28;20043;-79
2024/01/22 07:06:57;;;;;;;3.35;2.13;;;;;;;10.94;85.79;98564.91;4972416;28;20050;-79
2024/01/22 07:09:23;;;;;;;2.72;2.10;;;;;;;11.02;85.60;98577.47;4972788;28;20049;-79
2024/01/22 07:11:50;;;;;;;3.58;2.10;;;;;;;11.09;85.26;98572.56;4972380;28;20055;-80
2024/01/22 07:14:17;;;;;;;5.15;2.00;;;;;;;11.15;85.38;98576.53;4972186;28;20043;-79
2024/01/22 07:16:43;;;;;;;1.88;1.60;;;;;;;11.22;84.94;98583.00;4972334;28;20039;-78
2024/01/22 07:19:10;;;;;;;4.10;1.85;;;;;;;11.28;84.68;98568.47;4972355;28;20054;-80
2024/01/22 07:21:36;;;;;;;1.50;1.33;;;;;;;11.34;84.67;98560.91;4972231;28;20042;-79
2024/01/22 07:24:03;;;;;;;1.90;1.30;;;;;;;11.40;84.67;98566.69;4972358;28;20051;-79
2024/01/22 07:26:30;;;;;;;2.97;1.40;;;;;;;11.46;84.46;98555.63;4972357;28;20043;-80
2024/01/22 07:28:57;;;;;;;3.63;1.45;;;;;;;11.50;84.14;98562.34;4971825;28;20093;-79
2024/01/22 07:31:24;;;;;;;1.65;1.20;;;;;;;11.52;83.68;98568.34;4972161;28;20047;-80
2024/01/22 07:33:50;;;;;;;2.17;1.30;;;;;;;11.57;84.06;98574.06;4971763;28;20078;-79
2024/01/22 07:36:17;;;;;;;1.38;0.98;;;;;;;11.64;84.02;98577.03;4971887;28;20142;-79
2024/01/22 07:38:45;;;;;;;4.20;1.08;;;;;;;11.68;83.47;98614.53;4971685;28;20051;-79
2024/01/22 07:41:12;;;;;;;4.18;1.40;;;;;;;11.73;83.76;98580.72;4971946;28;20051;-78
2024/01/22 07:43:38;;;;;;;2.90;1.35;;;;;;;11.78;83.51;98569.81;4971831;28;20105;-79
2024/01/22 07:46:05;;;;;;;2.67;1.17;;;;;;;11.82;83.26;98600.25;4972045;28;20464;-77
2024/01/22 07:48:31;;;;;;;2.78;1.20;;;;;;;11.85;83.04;98597.38;4971553;28;20503;-78
2024/01/22 07:50:58;;;;;;;3.17;1.10;;;;;;;11.91;82.87;98596.00;4972035;28;20053;-78
2024/01/22 07:53:25;;;;;;;2.83;1.48;;;;;;;11.91;82.54;98596.84;4954722;28;20039;-77
2024/01/22 07:55:52;;;;;;;1.88;1.20;;;;;;;11.94;82.54;98590.50;4972006;28;20515;-78
2024/01/22 07:58:19;;;;;;;1.60;1.02;;;;;;;11.96;82.39;98601.78;4971921;28;20134;-78
2024/01/22 08:00:45;;;;;;;1.80;1.20;;;;;;;11.95;82.36;98623.81;4971185;28;20050;-77
2024/01/22 08:03:12;;;;;;;1.55;0.88;;;;;;;11.97;82.59;98598.16;4954515;28;20051;-78
2024/01/22 08:05:39;;;;;;;3.55;1.10;;;;;;;11.99;82.30;98622.59;4972004;28;20054;-77
2024/01/22 08:08:08;;;;;;;2.70;1.00;;;;;;;11.99;82.51;98614.69;4972110;28;20053;-78
2024/01/22 08:10:37;;;;;;;2.55;1.00;;;;;;;12.04;82.10;98601.13;4974512;28;20153;-77
2024/01/22 08:13:04;;;;;;;2.55;1.20;;;;;;;12.06;81.70;98613.25;4956192;28;20097;-78
2024/01/22 08:15:30;;;;;;;2.05;0.88;;;;;;;12.04;81.68;98609.88;4973958;28;20582;-78
2024/01/22 08:17:57;;;;;;;0.95;0.80;;;;;;;12.07;81.57;98616.75;4974393;28;20395;-78
2024/01/22 08:20:24;;;;;;;2.45;0.82;;;;;;;12.03;81.42;98604.75;4975388;28;20090;-77
2024/01/22 08:22:51;;;;;;;4.38;1.30;;;;;;;12.01;81.22;98625.13;4975164;28;20139;-78
2024/01/22 08:25:27;;;;;;;2.47;1.05;;;;;;;11.99;81.49;98641.91;4974959;28;20403;-77
2024/01/22 08:27:56;;;;;;;4.15;1.27;;;;;;;11.98;80.96;98632.31;4957252;28;20058;-78
2024/01/22 08:30:25;;;;;;;2.88;1.00;;;;;;;12.04;81.97;98624.88;4974922;28;20396;-79
2024/01/22 08:32:52;;;;;;;2.45;1.10;;;;;;;12.08;81.72;98616.59;4957819;28;20046;-78
2024/01/22 08:35:19;;;;;;;4.88;1.38;;;;;;;12.12;81.84;98612.75;4974800;28;20047;-78
2024/01/22 08:37:50;;;;;;;6.25;1.50;;;;;;;12.15;81.62;98631.94;4957402;28;20049;-78
2024/01/22 08:40:21;;;;;;;2.10;1.15;;;;;;;12.19;81.67;98633.38;4974956;28;20046;-79
2024/01/22 08:42:54;;;;;;;2.67;1.10;;;;;;;12.18;80.04;98644.88;4974592;28;20058;-77
2024/01/22 08:45:22;;;;;;;1.92;0.95;;;;;;;12.25;81.63;98625.78;4974937;28;20144;-80
2024/01/22 08:47:49;;;;;;;1.90;1.00;;;;;;;12.24;81.43;98626.75;4974559;28;20050;-77
2024/01/22 08:50:21;;;;;;;2.22;0.90;;;;;;;12.28;81.31;98618.56;4974466;28;20464;-78
2024/01/22 08:52:49;;;;;;;2.17;1.10;;;;;;;12.31;81.20;98613.03;4974332;28;20051;-81
2024/01/22 08:55:18;;;;;;;2.67;0.98;;;;;;;12.30;81.37;98601.63;4974426;28;20532;-78
2024/01/22 08:57:45;;;;;;;5.63;1.08;;;;;;;12.31;81.19;98603.34;4974278;28;20042;-77
2024/01/22 09:00:13;;;;;;;1.80;1.27;;;;;;;12.33;81.03;98629.56;4974415;28;20038;-77
2024/01/22 09:02:41;;;;;;;3.97;1.48;;;;;;;12.33;81.26;98616.38;4974427;28;20091;-77
2024/01/22 09:05:08;;;;;;;4.75;1.35;;;;;;;12.32;81.04;98612.06;4974740;28;20591;-77
2024/01/22 09:07:36;;;;;;;5.22;1.50;;;;;;;12.34;81.25;98605.69;4973844;28;20118;-76
2024/01/22 09:10:06;;;;;;;3.60;1.58;;;;;;;12.31;81.00;98607.75;4973988;28;20464;-79
2024/01/22 09:12:34;;;;;;;6.75;1.75;;;;;;;12.33;80.99;98601.38;4974165;28;20082;-77
2024/01/22 09:15:03;;;;;;;5.68;1.55;;;;;;;12.34;80.95;98615.44;4956849;28;20089;-77
2024/01/22 09:17:30;;;;;;;4.07;1.33;;;;;;;12.35;81.25;98607.41;4974048;28;20101;-77
2024/01/22 09:19:57;;;;;;;7.15;1.75;;;;;;;12.38;81.14;98627.41;4956290;28;20074;-78
2024/01/22 09:22:25;;;;;;;8.00;1.73;;;;;;;12.41;81.02;98624.50;4973124;28;20460;-78
2024/01/22 09:24:52;;;;;;;6.10;1.77;;;;;;;12.43;81.04;98614.66;4974128;28;20459;-77
2024/01/22 09:27:19;;;;;;;7.00;1.63;;;;;;;12.44;80.63;98612.84;4973869;28;20063;-77
2024/01/22 09:29:45;;;;;;;7.43;1.88;;;;;;;12.47;80.86;98620.50;4973447;28;20137;-77
2024/01/22 09:32:13;;;;;;;9.18;2.05;;;;;;;12.48;80.56;98607.19;4973679;28;20047;-78
2024/01/22 09:34:39;;;;;;;5.43;1.60;;;;;;;12.49;80.81;98611.50;4956737;28;20045;-77
2024/01/22 09:37:06;;;;;;;4.57;1.40;;;;;;;12.51;81.07;98620.13;4973528;28;20055;-77
2024/01/22 09:39:33;;;;;;;4.95;1.60;;;;;;;12.47;80.37;98620.50;4973391;28;20070;-79
2024/01/22 09:42:00;;;;;;;5.43;1.38;;;;;;;12.49;80.88;98621.25;4956730;28;20109;-77
2024/01/22 09:44:27;;;;;;;4.78;1.65;;;;;;;12.50;80.82;98631.66;4973601;28;20050;-77
2024/01/22 09:46:56;;;;;;;9.63;1.90;;;;;;;12.50;80.29;98636.94;4956584;28;20051;-77
2024/01/22 09:49:23;;;;;;;7.72;1.80;;;;;;;12.55;80.87;98615.44;4973053;28;20105;-76
2024/01/22 09:51:51;;;;;;;8.32;1.95;;;;;;;12.59;80.70;98598.38;4973318;28;20121;-76
2024/01/22 09:54:20;;;;;;;7.03;1.85;;;;;;;12.61;79.88;98628.13;4973319;28;20094;-76
2024/01/22 09:56:59;;;;;;;5.10;1.23;;;;;;;12.60;78.14;98628.25;4973487;28;20145;-76
2024/01/22 09:59:28;;;;;;;5.93;1.85;;;;;;;12.63;79.22;98631.47;4973357;28;20038;-78
2024/01/22 10:01:55;;;;;;;9.25;1.90;;;;;;;12.68;80.68;98622.31;4955858;28;20042;-77
2024/01/22 10:04:23;;;;;;;4.38;1.20;;;;;;;12.70;80.82;98613.31;4955972;28;20085;-77
2024/01/22 10:06:50;;;;;;;5.80;1.52;;;;;;;12.72;80.66;98610.53;4973310;28;20047;-79
2024/01/22 10:09:17;;;;;;;2.97;1.08;;;;;;;12.73;80.31;98644.75;4973118;28;20074;-77
2024/01/22 10:11:46;;;;;;;2.70;1.40;;;;;;;12.74;80.19;98614.72;4973069;28;20061;-79
2024/01/22 10:14:13;;;;;;;2.90;1.23;;;;;;;12.78;80.75;98617.94;4955751;28;20514;-77
2024/01/22 10:16:40;;;;;;;3.65;1.20;;;;;;;12.79;80.61;98609.06;4955849;28;20125;-77
2024/01/22 10:19:09;;;;;;;3.20;1.38;;;;;;;12.76;80.24;98604.84;4972795;28;20046;-79
2024/01/22 10:21:37;;;;;;;3.97;1.20;;;;;;;12.74;79.96;98611.22;4956106;28;20101;-76
2024/01/22 10:24:09;;;;;;;4.55;1.40;;;;;;;12.72;80.26;98611.38;4972792;28;20050;-77
2024/01/22 10:26:36;;;;;;;4.80;1.70;;;;;;;12.72;80.34;98607.91;4973038;28;20108;-77
2024/01/22 10:29:19;;;;;;;3.55;1.60;;;;;;;12.64;78.85;98611.19;4972483;28;20113;-76
2024/01/22 10:32:00;;;;;;;2.75;1.80;;;;;;;12.59;78.76;98608.94;4955763;28;20047;-77
2024/01/22 10:34:31;;;;;;;3.70;1.52;;;;;;;12.60;80.13;98607.97;4972916;28;20090;-77
2024/01/22 10:37:08;;;;;;;5.43;2.10;;;;;;;12.50;79.37;98615.84;4955487;28;20121;-79
2024/01/22 10:39:39;;;;;;;4.78;1.95;;;;;;;12.48;80.72;98622.19;4972446;28;20045;-78
2024/01/22 10:42:16;;;;;;;5.90;1.90;;;;;;;12.36;80.08;98598.50;4972844;28;20049;-78
2024/01/22 10:44:45;;;;;;;4.63;2.10;;;;;;;12.33;81.32;98609.31;4972687;28;20046;-79
2024/01/22 10:47:16;;;;;;;5.53;2.28;;;;;;;12.29;81.31;98594.69;4972681;28;20113;-78
2024/01/22 10:49:44;;;;;;;8.00;2.58;;;;;;;12.27;81.90;98591.34;4972330;28;20077;-77
2024/01/22 10:52:15;;;;;;;8.93;2.22;;;;;;;12.26;82.08;98592.28;4972648;28;20395;-82
2024/01/22 10:54:42;;;;;;;7.95;1.98;;;;;;;12.23;82.24;98601.31;4972493;28;20042;-77
2024/01/22 10:57:14;;;;;;;7.85;2.60;;;;;;;12.21;82.06;98620.88;4972613;28;20596;-79
2024/01/22 10:59:48;;;;;;;8.80;2.13;;;;;;;12.17;81.72;98624.72;4972487;28;20115;-76
2024/01/22 11:02:23;;;;;;;7.07;1.98;;;;;;;12.11;81.82;98611.06;4972187;28;20090;-77
2024/01/22 11:04:52;;;;;;;9.20;1.90;;;;;;;12.09;82.28;98636.75;4972597;28;20071;-77
2024/01/22 11:07:29;;;;;;;5.90;1.77;;;;;;;12.03;82.56;98626.66;4972491;28;20492;-78
2024/01/22 11:09:58;;;;;;;9.63;2.20;;;;;;;11.99;82.92;98643.69;4955087;28;20137;-79
2024/01/22 11:12:33;;;;;;;7.47;1.67;;;;;;;11.94;83.34;98651.16;4972078;28;20050;-77
2024/01/22 11:15:00;;;;;;;6.30;1.98;;;;;;;11.92;83.52;98685.53;4972176;28;20046;-79
2024/01/22 11:17:27;;;;;;;7.47;1.88;;;;;;;11.86;83.92;98692.16;4972496;28;20043;-77
2024/01/22 11:20:16;;;;;;;4.43;1.30;;;;;;;11.79;83.58;98690.13;4971979;28;20439;-77
2024/01/22 11:23:01;;;;;;;4.72;1.48;;;;;;;11.73;82.42;98699.34;4954734;28;20047;-78
2024/01/22 11:25:28;;;;;;;3.30;1.05;;;;;;;11.72;82.25;98690.63;4972187;28;20050;-77
2024/01/22 11:28:07;;;;;;;5.22;1.38;;;;;;;11.62;81.39;98691.47;4972224;28;20074;-78
2024/01/22 11:30:44;;;;;;;3.28;1.17;;;;;;;11.57;81.73;98708.47;4972099;28;20047;-78
2024/01/22 11:33:25;;;;;;;5.07;1.35;;;;;;;11.46;81.09;98690.88;4972062;28;20110;-79
2024/01/22 11:35:53;;;;;;;4.53;1.25;;;;;;;11.43;81.51;98684.97;4971795;28;20133;-77
2024/01/22 11:38:41;;;;;;;5.72;1.67;;;;;;;11.29;80.62;98684.25;4954052;28;20046;-79
2024/01/22 11:41:08;;;;;;;7.47;1.40;;;;;;;11.26;81.78;98668.72;4970416;28;20051;-79
2024/01/22 11:43:35;;;;;;;10.45;2.08;;;;;;;11.19;81.92;98678.91;4953204;28;20043;-79
2024/01/22 11:46:14;;;;;;;9.90;1.85;;;;;;;11.09;81.58;98672.63;4974338;28;20082;-78
2024/01/22 11:48:41;;;;;;;6.40;1.60;;;;;;;11.06;82.22;98678.97;4974531;28;20066;-78
2024/01/22 11:51:08;;;;;;;8.00;1.95;;;;;;;11.02;82.68;98700.38;4974110;28;20069;-78